createdAt,value
2022-11-06T00:00:38.091Z,99.90
2022-11-06T00:03:07.015Z,99.90
2022-11-06T00:05:53.412Z,99.90
2022-11-06T00:08:29.657Z,99.90
2022-11-06T00:10:57.748Z,99.90
2022-11-06T00:13:25.922Z,99.90
2022-11-06T00:15:55.393Z,99.90
2022-11-06T00:18:27.553Z,99.90
2022-11-06T00:20:55.737Z,99.90
2022-11-06T00:23:23.762Z,99.90
2022-11-06T00:25:55.838Z,99.90
2022-11-06T00:28:24.294Z,99.90
2022-11-06T00:30:52.342Z,99.90
2022-11-06T00:33:21.729Z,99.90
2022-11-06T00:35:49.673Z,99.90
2022-11-06T00:38:17.841Z,99.90
2022-11-06T00:40:46.052Z,99.90
2022-11-06T00:43:14.050Z,99.90
2022-11-06T00:45:42.036Z,99.90
2022-11-06T00:48:10.201Z,99.90
2022-11-06T00:50:40.029Z,99.90
2022-11-06T00:53:08.072Z,99.90
2022-11-06T00:55:36.534Z,99.90
2022-11-06T00:58:04.719Z,99.90
2022-11-06T01:00:32.654Z,99.90
2022-11-06T01:03:00.727Z,99.90
2022-11-06T01:05:28.840Z,99.90
2022-11-06T01:07:58.194Z,99.90
2022-11-06T01:10:26.153Z,99.90
2022-11-06T01:12:54.132Z,99.90
2022-11-06T01:15:22.049Z,99.90
2022-11-06T01:17:50.183Z,99.90
2022-11-06T01:20:18.300Z,99.90
2022-11-06T01:22:46.440Z,99.90
2022-11-06T01:25:15.898Z,99.90
2022-11-06T01:27:43.874Z,99.90
2022-11-06T01:30:13.121Z,99.90
2022-11-06T01:32:41.597Z,99.90
2022-11-06T01:35:09.913Z,99.90
2022-11-06T01:37:38.442Z,99.90
2022-11-06T01:40:07.173Z,99.90
2022-11-06T01:42:36.834Z,99.90
2022-11-06T01:45:25.807Z,99.90
2022-11-06T01:47:54.090Z,99.90
2022-11-06T01:50:22.565Z,99.90
2022-11-06T01:52:52.058Z,99.90
2022-11-06T01:55:25.222Z,99.90
2022-11-06T01:57:56.090Z,99.90
2022-11-06T02:00:24.807Z,99.90
2022-11-06T02:02:53.324Z,99.90
2022-11-06T02:05:22.029Z,99.90
2022-11-06T02:07:50.988Z,99.90
2022-11-06T02:10:19.189Z,99.90
2022-11-06T02:12:56.442Z,99.90
2022-11-06T02:15:35.572Z,99.90
2022-11-06T02:18:30.833Z,99.90
2022-11-06T02:21:41.245Z,99.90
2022-11-06T02:24:36.851Z,99.90
2022-11-06T02:27:11.584Z,99.90
2022-11-06T02:29:47.216Z,99.90
2022-11-06T02:32:18.232Z,99.90
2022-11-06T02:34:48.824Z,99.90
2022-11-06T02:37:20.665Z,99.90
2022-11-06T02:39:52.709Z,99.90
2022-11-06T02:42:23.144Z,99.90
2022-11-06T02:44:54.891Z,99.90
2022-11-06T02:47:26.020Z,99.90
2022-11-06T02:49:56.925Z,99.90
2022-11-06T02:52:30.216Z,99.90
2022-11-06T02:55:04.478Z,99.90
2022-11-06T02:57:39.794Z,99.90
2022-11-06T03:00:12.584Z,99.90
2022-11-06T03:02:46.862Z,99.90
2022-11-06T03:05:20.989Z,99.90
2022-11-06T03:07:54.374Z,99.90
2022-11-06T03:10:25.857Z,99.90
2022-11-06T03:12:58.280Z,99.90
2022-11-06T03:15:33.571Z,99.90
2022-11-06T03:18:11.712Z,99.90
2022-11-06T03:20:44.601Z,99.90
2022-11-06T03:23:16.092Z,99.90
2022-11-06T03:25:48.299Z,99.90
2022-11-06T03:28:26.304Z,99.90
2022-11-06T03:30:59.577Z,99.90
2022-11-06T03:33:34.086Z,99.90
2022-11-06T03:36:08.154Z,99.90
2022-11-06T03:38:42.354Z,99.90
2022-11-06T03:41:15.901Z,99.90
2022-11-06T03:43:48.933Z,99.90
2022-11-06T03:46:25.334Z,99.90
2022-11-06T03:48:57.911Z,99.90
2022-11-06T03:51:31.556Z,99.90
2022-11-06T03:54:04.307Z,99.90
2022-11-06T03:56:38.411Z,99.90
2022-11-06T03:59:10.154Z,99.90
2022-11-06T04:01:40.334Z,99.90
2022-11-06T04:04:13.045Z,99.90
2022-11-06T04:06:45.285Z,99.90
2022-11-06T04:09:33.833Z,99.90
2022-11-06T04:12:22.187Z,99.90
2022-11-06T04:14:55.808Z,99.90
2022-11-06T04:17:27.499Z,99.90
2022-11-06T04:19:59.614Z,99.90
2022-11-06T04:22:38.457Z,99.90
2022-11-06T04:25:36.797Z,99.90
2022-11-06T04:28:18.884Z,99.90
2022-11-06T04:30:58.452Z,99.90
2022-11-06T04:33:33.435Z,99.90
2022-11-06T04:36:08.442Z,99.90
2022-11-06T04:38:47.481Z,99.90
2022-11-06T04:41:22.179Z,99.90
2022-11-06T04:43:54.075Z,99.90
2022-11-06T04:46:27.313Z,99.90
2022-11-06T04:48:56.273Z,99.90
2022-11-06T04:51:28.234Z,99.90
2022-11-06T04:53:57.526Z,99.90
2022-11-06T04:56:34.097Z,99.90
2022-11-06T04:59:03.473Z,99.90
2022-11-06T05:01:33.353Z,99.90
2022-11-06T05:04:01.796Z,99.90
2022-11-06T05:06:30.405Z,99.90
2022-11-06T05:08:59.277Z,99.90
2022-11-06T05:11:27.386Z,99.90
2022-11-06T05:13:55.517Z,99.90
2022-11-06T05:16:23.472Z,99.90
2022-11-06T05:18:53.046Z,99.90
2022-11-06T05:21:38.401Z,99.90
2022-11-06T05:24:07.576Z,99.90
2022-11-06T05:26:35.528Z,99.90
2022-11-06T05:29:03.784Z,99.90
2022-11-06T05:31:31.762Z,99.90
2022-11-06T05:34:01.359Z,99.90
2022-11-06T05:36:29.448Z,99.90
2022-11-06T05:38:57.440Z,99.90
2022-11-06T05:41:25.607Z,99.90
2022-11-06T05:43:54.034Z,99.90
2022-11-06T05:46:46.915Z,99.90
2022-11-06T05:49:11.605Z,99.90
2022-11-06T05:51:39.556Z,99.90
2022-11-06T05:54:07.528Z,99.90
2022-11-06T05:56:35.465Z,99.90
2022-11-06T05:59:03.472Z,99.90
2022-11-06T06:01:31.747Z,99.90
2022-11-06T06:04:00.087Z,99.90
2022-11-06T06:06:29.828Z,99.90
2022-11-06T06:08:57.815Z,99.90
2022-11-06T06:11:27.079Z,99.90
2022-11-06T06:13:55.379Z,99.90
2022-11-06T06:16:23.532Z,99.90
2022-11-06T06:18:51.806Z,99.90
2022-11-06T06:21:19.837Z,99.90
2022-11-06T06:23:49.187Z,99.90
2022-11-06T06:26:17.314Z,99.90
2022-11-06T06:28:45.333Z,99.90
2022-11-06T06:31:13.505Z,99.90
2022-11-06T06:33:41.711Z,99.90
2022-11-06T06:36:10.605Z,99.90
2022-11-06T06:38:38.649Z,99.90
2022-11-06T06:41:09.340Z,99.90
2022-11-06T06:43:37.651Z,99.90
2022-11-06T06:46:07.639Z,99.90
2022-11-06T06:48:36.367Z,99.90
2022-11-06T06:51:07.785Z,99.90
2022-11-06T06:53:36.472Z,99.90
2022-11-06T06:56:04.760Z,99.90
2022-11-06T06:58:34.189Z,99.90
2022-11-06T07:01:03.210Z,99.90
2022-11-06T07:03:31.714Z,99.90
2022-11-06T07:06:00.382Z,99.90
2022-11-06T07:08:29.441Z,99.90
2022-11-06T07:11:01.175Z,99.90
2022-11-06T07:13:35.445Z,99.90
2022-11-06T07:16:06.788Z,99.90
2022-11-06T07:18:35.564Z,99.90
2022-11-06T07:21:05.965Z,99.90
2022-11-06T07:23:35.020Z,99.90
2022-11-06T07:26:03.398Z,99.90
2022-11-06T07:28:31.857Z,99.90
2022-11-06T07:31:00.854Z,99.90
2022-11-06T07:33:30.627Z,99.90
2022-11-06T07:36:03.877Z,99.90
2022-11-06T07:38:33.733Z,99.90
2022-11-06T07:41:04.517Z,99.90
2022-11-06T07:43:32.668Z,99.90
2022-11-06T07:46:01.784Z,99.90
2022-11-06T07:48:32.566Z,99.90
2022-11-06T07:51:03.677Z,99.90
2022-11-06T07:53:31.988Z,99.90
2022-11-06T07:56:01.310Z,99.90
2022-11-06T08:00:59.674Z,99.90
2022-11-06T08:03:30.294Z,99.90
2022-11-06T08:06:00.694Z,99.90
2022-11-06T08:08:29.482Z,99.90
2022-11-06T08:10:57.663Z,99.90
2022-11-06T08:13:26.566Z,99.90
2022-11-06T08:15:54.661Z,99.90
2022-11-06T08:18:22.695Z,99.90
2022-11-06T08:20:53.768Z,99.90
2022-11-06T08:23:23.534Z,99.90
2022-11-06T08:25:55.182Z,99.80
2022-11-06T08:28:23.289Z,97.70
2022-11-06T08:30:51.308Z,95.90
2022-11-06T08:33:19.839Z,92.20
2022-11-06T08:35:48.292Z,92.80
2022-11-06T08:38:17.141Z,90.60
2022-11-06T08:40:52.348Z,92.20
2022-11-06T08:43:24.214Z,95.50
2022-11-06T08:45:52.420Z,99.90
2022-11-06T08:48:20.668Z,99.90
2022-11-06T08:50:48.930Z,99.90
2022-11-06T08:53:17.726Z,99.90
2022-11-06T08:55:47.700Z,99.90
2022-11-06T08:58:15.982Z,99.90
2022-11-06T09:00:44.217Z,99.90
2022-11-06T09:03:14.917Z,99.90
2022-11-06T09:05:44.774Z,99.90
2022-11-06T09:08:13.768Z,98.40
2022-11-06T09:10:43.197Z,95.80
2022-11-06T09:13:13.726Z,94.00
2022-11-06T09:15:42.487Z,92.00
2022-11-06T09:18:13.556Z,93.00
2022-11-06T09:20:43.886Z,91.40
2022-11-06T09:23:16.033Z,90.80
2022-11-06T09:25:44.304Z,89.50
2022-11-06T09:28:13.866Z,87.40
2022-11-06T09:30:41.879Z,88.40
2022-11-06T09:33:13.468Z,86.50
2022-11-06T09:35:42.709Z,87.20
2022-11-06T09:38:13.312Z,87.60
2022-11-06T09:40:47.874Z,90.20
2022-11-06T09:43:58.225Z,87.30
2022-11-06T09:46:23.224Z,89.20
2022-11-06T09:48:56.586Z,87.90
2022-11-06T09:51:33.029Z,87.80
2022-11-06T09:54:07.491Z,88.00
2022-11-06T09:56:39.286Z,88.50
2022-11-06T09:59:15.070Z,85.80
2022-11-06T10:01:45.430Z,86.00
2022-11-06T10:04:25.113Z,90.40
2022-11-06T10:06:53.885Z,94.90
2022-11-06T10:09:22.031Z,99.90
2022-11-06T10:11:59.253Z,99.90
2022-11-06T10:14:45.794Z,99.90
2022-11-06T10:17:24.349Z,99.90
2022-11-06T10:20:00.134Z,99.90
2022-11-06T10:22:33.445Z,99.90
2022-11-06T10:25:10.097Z,99.90
2022-11-06T10:27:42.406Z,99.90
2022-11-06T10:30:14.749Z,99.90
2022-11-06T10:33:08.299Z,99.90
2022-11-06T10:35:41.600Z,99.90
2022-11-06T10:38:15.036Z,99.90
2022-11-06T10:40:46.091Z,99.90
2022-11-06T10:43:26.053Z,99.90
2022-11-06T10:45:59.893Z,99.90
2022-11-06T10:48:33.419Z,99.90
2022-11-06T10:51:19.275Z,99.90
2022-11-06T10:53:56.950Z,99.90
2022-11-06T10:56:42.584Z,99.90
2022-11-06T10:59:10.631Z,99.90
2022-11-06T11:01:40.556Z,99.90
2022-11-06T11:04:08.773Z,99.90
2022-11-06T11:06:40.560Z,99.90
2022-11-06T11:09:29.295Z,99.90
2022-11-06T11:11:57.675Z,99.90
2022-11-06T11:14:27.667Z,99.90
2022-11-06T11:17:00.057Z,99.90
2022-11-06T11:19:36.541Z,99.90
2022-11-06T11:22:05.835Z,99.90
2022-11-06T11:24:34.400Z,99.90
2022-11-06T11:27:15.546Z,99.90
2022-11-06T11:29:48.463Z,99.90
2022-11-06T11:32:21.823Z,99.90
2022-11-06T11:34:56.616Z,99.90
2022-11-06T11:37:27.954Z,99.90
2022-11-06T11:39:56.271Z,99.90
2022-11-06T11:42:27.562Z,99.90
2022-11-06T11:45:20.075Z,99.90
2022-11-06T11:47:51.682Z,99.90
2022-11-06T11:50:28.172Z,99.90
2022-11-06T11:53:08.690Z,99.90
2022-11-06T11:55:41.852Z,99.90
2022-11-06T11:58:20.992Z,99.90
2022-11-06T12:00:55.359Z,99.90
2022-11-06T12:03:28.566Z,99.90
2022-11-06T12:06:06.986Z,99.90
2022-11-06T12:08:35.262Z,99.90
2022-11-06T12:11:05.756Z,99.90
2022-11-06T12:13:34.546Z,99.90
2022-11-06T12:16:05.717Z,99.90
2022-11-06T12:18:38.214Z,99.90
2022-11-06T12:21:08.405Z,99.90
2022-11-06T12:23:43.704Z,99.90
2022-11-06T12:26:23.520Z,99.90
2022-11-06T12:29:02.069Z,99.90
2022-11-06T12:31:39.823Z,99.90
2022-11-06T12:34:17.395Z,99.90
2022-11-06T12:36:58.214Z,99.90
2022-11-06T12:39:32.487Z,99.90
2022-11-06T12:42:04.995Z,99.90
2022-11-06T12:44:36.766Z,99.90
2022-11-06T12:47:12.297Z,99.90
2022-11-06T12:49:59.879Z,99.90
2022-11-06T12:52:43.397Z,99.90
2022-11-06T12:55:19.801Z,99.90
2022-11-06T12:57:58.292Z,99.90
2022-11-06T13:00:32.075Z,99.90
2022-11-06T13:03:27.036Z,99.90
2022-11-06T13:06:01.743Z,99.90
2022-11-06T13:08:38.483Z,99.90
2022-11-06T13:11:19.808Z,99.90
2022-11-06T13:13:57.491Z,99.90
2022-11-06T13:16:34.825Z,99.90
2022-11-06T13:19:11.954Z,99.90
2022-11-06T13:22:02.762Z,99.90
2022-11-06T13:24:38.176Z,99.90
2022-11-06T13:27:12.577Z,99.90
2022-11-06T13:29:43.037Z,99.90
2022-11-06T13:32:16.688Z,99.90
2022-11-06T13:34:48.893Z,99.90
2022-11-06T13:37:20.845Z,99.90
2022-11-06T13:39:56.173Z,99.90
2022-11-06T13:42:30.486Z,99.90
2022-11-06T13:45:00.030Z,99.90
2022-11-06T13:47:35.637Z,99.90
2022-11-06T13:50:10.071Z,99.90
2022-11-06T13:52:47.574Z,99.90
2022-11-06T13:55:24.732Z,99.90
2022-11-06T13:58:19.650Z,99.90
2022-11-06T14:00:59.581Z,99.90
2022-11-06T14:03:56.683Z,99.90
2022-11-06T14:06:26.564Z,99.90
2022-11-06T14:08:57.989Z,99.90
2022-11-06T14:11:30.148Z,99.90
2022-11-06T14:14:03.433Z,99.90
2022-11-06T14:16:33.608Z,99.90
2022-11-06T14:19:10.662Z,99.90
2022-11-06T14:21:51.717Z,99.90
2022-11-06T14:24:33.715Z,99.90
2022-11-06T14:27:03.667Z,99.90
2022-11-06T14:30:00.548Z,99.90
2022-11-06T14:32:40.981Z,99.90
2022-11-06T14:35:51.904Z,99.90
2022-11-06T14:38:33.833Z,99.90
2022-11-06T14:41:23.776Z,99.90
2022-11-06T14:43:54.991Z,99.90
2022-11-06T14:46:25.162Z,99.90
2022-11-06T14:48:55.984Z,99.90
2022-11-06T14:51:28.905Z,99.90
2022-11-06T14:53:59.923Z,99.90
2022-11-06T14:56:32.506Z,99.90
2022-11-06T14:59:04.401Z,99.90
2022-11-06T15:01:34.702Z,99.90
2022-11-06T15:04:05.690Z,99.90
2022-11-06T15:06:43.435Z,99.90
2022-11-06T15:09:15.503Z,99.90
2022-11-06T15:11:57.573Z,99.90
2022-11-06T15:14:57.658Z,99.90
2022-11-06T15:17:28.814Z,99.90
2022-11-06T15:20:07.494Z,99.90
2022-11-06T15:22:39.420Z,99.90
2022-11-06T15:25:21.001Z,99.90
2022-11-06T15:27:59.334Z,99.90
2022-11-06T15:30:29.576Z,99.90
2022-11-06T15:33:00.005Z,99.90
2022-11-06T15:35:34.076Z,99.90
2022-11-06T15:38:07.335Z,99.90
2022-11-06T15:40:37.734Z,99.90
2022-11-06T15:43:26.842Z,99.90
2022-11-06T15:46:16.322Z,99.90
2022-11-06T15:48:44.648Z,99.90
2022-11-06T15:51:30.838Z,99.90
2022-11-06T15:53:58.686Z,99.90
2022-11-06T15:56:32.509Z,99.90
2022-11-06T15:59:17.578Z,99.90
2022-11-06T16:01:48.981Z,99.90
2022-11-06T16:04:21.752Z,99.90
2022-11-06T16:06:52.423Z,99.90
2022-11-06T16:09:22.910Z,99.90
2022-11-06T16:11:53.061Z,99.90
2022-11-06T16:14:23.311Z,99.90
2022-11-06T16:16:52.836Z,99.90
2022-11-06T16:19:32.096Z,99.90
2022-11-06T16:22:04.426Z,99.90
2022-11-06T16:24:40.937Z,99.90
2022-11-06T16:27:09.989Z,99.90
2022-11-06T16:29:40.405Z,99.90
2022-11-06T16:32:16.226Z,99.90
2022-11-06T16:34:46.139Z,99.90
2022-11-06T16:37:37.732Z,99.90
2022-11-06T16:40:36.279Z,99.90
2022-11-06T16:43:04.640Z,99.90
2022-11-06T16:45:41.621Z,99.90
2022-11-06T16:48:35.848Z,99.90
2022-11-06T16:51:06.690Z,99.90
2022-11-06T16:54:01.448Z,99.90
2022-11-06T16:56:31.418Z,99.90
2022-11-06T16:59:03.767Z,99.90
2022-11-06T17:01:41.213Z,99.90
2022-11-06T17:04:20.618Z,99.90
2022-11-06T17:06:49.619Z,99.90
2022-11-06T17:09:32.401Z,99.90
2022-11-06T17:12:01.599Z,99.90
2022-11-06T17:14:30.557Z,99.90
2022-11-06T17:17:02.377Z,99.90
2022-11-06T17:19:31.135Z,99.90
2022-11-06T17:21:59.813Z,99.90
2022-11-06T17:24:37.038Z,99.90
2022-11-06T17:27:06.641Z,99.90
2022-11-06T17:29:36.441Z,99.90
2022-11-06T17:32:06.186Z,99.90
2022-11-06T17:34:34.518Z,99.90
2022-11-06T17:37:02.668Z,99.90
2022-11-06T17:39:31.846Z,99.90
2022-11-06T17:42:00.039Z,99.90
2022-11-06T17:44:28.220Z,99.90
2022-11-06T17:46:56.339Z,99.90
2022-11-06T17:49:26.058Z,99.90
2022-11-06T17:51:58.416Z,99.90
2022-11-06T17:54:28.999Z,99.90
2022-11-06T17:56:57.729Z,99.90
2022-11-06T17:59:26.231Z,99.90
2022-11-06T18:01:55.810Z,99.90
2022-11-06T18:04:27.824Z,99.90
2022-11-06T18:06:56.214Z,99.90
2022-11-06T18:09:25.110Z,99.90
2022-11-06T18:11:55.096Z,99.90
2022-11-06T18:14:24.659Z,99.90
2022-11-06T18:16:52.900Z,99.90
2022-11-06T18:19:23.321Z,99.90
2022-11-06T18:21:53.187Z,99.90
2022-11-06T18:24:21.534Z,99.90
2022-11-06T18:26:49.555Z,99.90
2022-11-06T18:29:17.844Z,99.90
2022-11-06T18:31:45.855Z,99.90
2022-11-06T18:34:19.827Z,99.90
2022-11-06T18:36:48.975Z,99.90
2022-11-06T18:39:18.884Z,99.90
2022-11-06T18:41:47.065Z,99.90
2022-11-06T18:44:16.919Z,99.90
2022-11-06T18:46:45.229Z,99.90
2022-11-06T18:49:13.388Z,99.90
2022-11-06T18:51:41.581Z,99.90
2022-11-06T18:54:11.544Z,99.90
2022-11-06T18:56:40.982Z,99.90
2022-11-06T18:59:15.484Z,99.90
2022-11-06T19:01:43.743Z,99.90
2022-11-06T19:04:12.026Z,99.90
2022-11-06T19:06:40.560Z,99.90
2022-11-06T19:09:08.964Z,99.90
2022-11-06T19:11:36.996Z,99.90
2022-11-06T19:14:06.465Z,99.90
2022-11-06T19:16:34.555Z,99.90
2022-11-06T19:19:05.602Z,99.90
2022-11-06T19:21:35.106Z,99.90
2022-11-06T19:24:05.904Z,99.90
2022-11-06T19:26:35.475Z,99.90
2022-11-06T19:29:04.234Z,99.90
2022-11-06T19:31:34.955Z,99.90
2022-11-06T19:34:04.686Z,99.90
2022-11-06T19:36:32.895Z,99.90
2022-11-06T19:39:01.326Z,99.90
2022-11-06T19:41:30.297Z,99.90
2022-11-06T19:43:58.598Z,99.90
2022-11-06T19:46:31.088Z,99.90
2022-11-06T19:49:05.276Z,99.90
2022-11-06T19:51:33.916Z,99.90
2022-11-06T19:54:02.616Z,99.90
2022-11-06T19:56:30.742Z,99.90
2022-11-06T19:58:58.859Z,99.90
2022-11-06T20:01:27.148Z,99.90
2022-11-06T20:03:55.184Z,99.90
2022-11-06T20:06:24.535Z,99.90
2022-11-06T20:08:52.793Z,99.90
2022-11-06T20:11:20.792Z,99.90
2022-11-06T20:13:48.938Z,99.90
2022-11-06T20:16:19.161Z,99.90
2022-11-06T20:18:52.306Z,99.90
2022-11-06T20:21:21.360Z,99.90
2022-11-06T20:23:52.472Z,99.90
2022-11-06T20:26:20.991Z,99.90
2022-11-06T20:28:49.759Z,99.90
2022-11-06T20:31:19.856Z,99.90
2022-11-06T20:33:48.266Z,99.90
2022-11-06T20:36:19.205Z,99.90
2022-11-06T20:38:47.744Z,99.90
2022-11-06T20:41:17.871Z,99.90
2022-11-06T20:43:46.622Z,99.90
2022-11-06T20:46:16.389Z,99.90
2022-11-06T20:48:45.614Z,99.90
2022-11-06T20:51:16.099Z,99.90
2022-11-06T20:53:44.362Z,99.90
2022-11-06T20:56:14.745Z,99.90
2022-11-06T20:58:44.119Z,99.90
2022-11-06T21:01:17.388Z,99.90
2022-11-06T21:03:46.694Z,99.90
2022-11-06T21:06:15.339Z,99.90
2022-11-06T21:08:43.959Z,99.90
2022-11-06T21:11:13.990Z,99.90
2022-11-06T21:13:46.118Z,99.90
2022-11-06T21:16:16.488Z,99.90
2022-11-06T21:19:04.723Z,99.90
2022-11-06T21:21:34.621Z,99.90
2022-11-06T21:24:04.602Z,99.90
2022-11-06T21:26:35.289Z,99.90
2022-11-06T21:29:06.693Z,99.90
2022-11-06T21:31:41.367Z,99.90
2022-11-06T21:34:12.323Z,99.90
2022-11-06T21:36:40.487Z,99.90
2022-11-06T21:39:11.597Z,99.90
2022-11-06T21:41:39.781Z,99.90
2022-11-06T21:44:10.109Z,99.90
2022-11-06T21:46:42.532Z,99.90
2022-11-06T21:49:13.673Z,99.90
2022-11-06T21:51:42.647Z,99.90
2022-11-06T21:54:29.493Z,99.90
2022-11-06T21:56:57.776Z,99.90
2022-11-06T21:59:28.698Z,99.90
2022-11-06T22:01:57.377Z,99.90
2022-11-06T22:04:25.731Z,99.90
2022-11-06T22:06:53.758Z,99.90
2022-11-06T22:09:25.405Z,99.90
2022-11-06T22:11:55.266Z,99.90
2022-11-06T22:14:23.604Z,99.90
2022-11-06T22:16:53.796Z,99.90
2022-11-06T22:19:21.945Z,99.90
2022-11-06T22:21:50.113Z,99.90
2022-11-06T22:24:18.404Z,99.90
2022-11-06T22:26:46.591Z,99.90
2022-11-06T22:29:16.611Z,99.90
2022-11-06T22:31:44.822Z,99.90
2022-11-06T22:34:14.685Z,99.90
2022-11-06T22:36:42.894Z,99.90
2022-11-06T22:39:12.225Z,99.90
2022-11-06T22:41:41.048Z,99.90
2022-11-06T22:44:09.747Z,99.90
2022-11-06T22:46:37.972Z,99.90
2022-11-06T22:49:06.872Z,99.90
2022-11-06T22:51:38.843Z,99.90
2022-11-06T22:54:07.558Z,99.90
2022-11-06T22:56:35.616Z,99.90
2022-11-06T22:59:07.728Z,99.90
2022-11-06T23:01:41.985Z,99.90
2022-11-06T23:04:14.848Z,99.90
2022-11-06T23:06:45.758Z,99.90
2022-11-06T23:09:14.674Z,99.90
2022-11-06T23:11:42.739Z,99.90
2022-11-06T23:14:10.746Z,99.90
2022-11-06T23:16:55.995Z,99.90
2022-11-06T23:19:25.170Z,99.90
2022-11-06T23:22:16.478Z,99.90
2022-11-06T23:24:44.908Z,99.90
2022-11-06T23:27:13.459Z,99.90
2022-11-06T23:29:41.649Z,99.90
2022-11-06T23:32:09.704Z,99.90
2022-11-06T23:34:37.691Z,99.90
2022-11-06T23:37:07.118Z,99.90
2022-11-06T23:39:35.114Z,99.90
2022-11-06T23:42:03.268Z,99.90
2022-11-06T23:44:48.749Z,99.90
2022-11-06T23:47:16.786Z,99.90
2022-11-06T23:49:44.905Z,99.90
2022-11-06T23:52:14.308Z,99.90
2022-11-06T23:54:42.402Z,99.90
2022-11-06T23:57:11.159Z,99.90
2022-11-06T23:59:39.397Z,99.90
